Time;durP1;ratioP1;P1;durP2;ratioP2;P2;SDS_P1;SDS_P2;PMS_P1;PMS_P2;Temp;Humidity;BMP_temperature;BMP_pressure;BME280_temperature;BME280_humidity;BME280_pressure;Samples;Min_cycle;Max_cycle;Signal;HPM_P1;HPM_P2
2022/07/10 00:01:30;;;;;;;6.72;4.05;;;;;;;18.93;65.38;98948.97;5113102;28;20088;-69
2022/07/10 00:03:57;;;;;;;7.90;4.35;;;;;;;18.98;65.54;98947.78;5113380;28;20051;-71
2022/07/10 00:06:24;;;;;;;7.15;4.13;;;;;;;19.00;65.39;98942.53;5113515;28;20059;-68
2022/07/10 00:08:51;;;;;;;6.25;4.60;;;;;;;19.04;65.91;98954.63;5113377;28;20184;-68
2022/07/10 00:11:17;;;;;;;7.28;4.40;;;;;;;19.04;66.16;98949.75;5113429;28;20054;-68
2022/07/10 00:13:44;;;;;;;6.45;4.22;;;;;;;19.08;66.53;98944.94;5095194;28;20511;-69
2022/07/10 00:16:11;;;;;;;5.93;4.65;;;;;;;19.12;66.60;98936.47;5113445;28;20506;-68
2022/07/10 00:18:38;;;;;;;10.68;4.43;;;;;;;19.13;66.75;98938.88;5113230;28;20048;-69
2022/07/10 00:21:06;;;;;;;6.57;3.90;;;;;;;19.10;66.90;98931.22;5102968;28;20086;-68
2022/07/10 00:23:33;;;;;;;9.43;4.80;;;;;;;19.03;67.14;98925.59;5093367;28;20040;-68
2022/07/10 00:26:00;;;;;;;9.73;4.80;;;;;;;19.03;67.45;98925.59;5092906;28;20087;-69
2022/07/10 00:28:26;;;;;;;8.90;4.32;;;;;;;18.99;67.73;98924.00;5092450;28;20064;-69
2022/07/10 00:30:53;;;;;;;6.70;4.25;;;;;;;18.91;68.00;98928.84;5092759;28;20138;-68
2022/07/10 00:33:20;;;;;;;8.02;4.57;;;;;;;18.91;68.02;98922.38;5092741;28;20138;-68
2022/07/10 00:35:47;;;;;;;8.23;4.38;;;;;;;18.93;68.37;98906.69;5092606;28;20392;-69
2022/07/10 00:38:14;;;;;;;10.35;4.32;;;;;;;19.00;68.01;98909.50;5092730;28;20051;-68
2022/07/10 00:40:41;;;;;;;9.27;4.68;;;;;;;18.99;67.91;98915.53;5093241;28;20131;-68
2022/07/10 00:43:09;;;;;;;8.88;4.53;;;;;;;18.94;68.20;98927.22;5092686;28;20083;-68
2022/07/10 00:45:36;;;;;;;9.40;5.03;;;;;;;18.95;68.11;98920.38;5092514;28;20066;-68
2022/07/10 00:48:04;;;;;;;7.18;4.47;;;;;;;18.98;67.71;98897.81;5075221;28;20432;-67
2022/07/10 00:50:33;;;;;;;16.20;6.10;;;;;;;19.06;67.62;98890.97;5092552;28;20040;-67
2022/07/10 00:53:00;;;;;;;12.70;5.07;;;;;;;19.00;67.56;98903.88;5100415;28;20606;-67
2022/07/10 00:55:28;;;;;;;13.57;6.47;;;;;;;18.92;67.67;98930.44;5112885;28;20056;-66
2022/07/10 00:57:55;;;;;;;10.13;4.80;;;;;;;18.88;67.98;98928.81;5112966;28;20048;-68
2022/07/10 01:00:24;;;;;;;8.60;4.78;;;;;;;18.89;68.13;98914.34;5112939;28;20047;-67
2022/07/10 01:02:52;;;;;;;6.72;4.57;;;;;;;18.89;68.30;98908.69;5112891;28;20556;-68
2022/07/10 01:05:19;;;;;;;10.43;5.30;;;;;;;18.80;68.50;98904.69;5112790;28;20138;-67
2022/07/10 01:07:46;;;;;;;7.82;4.50;;;;;;;18.82;68.49;98908.72;5106068;28;20048;-67
2022/07/10 01:10:13;;;;;;;7.35;4.95;;;;;;;18.81;68.64;98904.28;5094898;28;20507;-67
2022/07/10 01:12:40;;;;;;;8.13;4.90;;;;;;;18.82;68.66;98897.44;5112570;28;20044;-67
2022/07/10 01:15:08;;;;;;;10.85;5.00;;;;;;;18.82;68.82;98890.97;5115399;28;20044;-67
2022/07/10 01:17:35;;;;;;;10.35;4.43;;;;;;;18.82;68.89;98891.78;5116817;28;20075;-66
2022/07/10 01:20:09;;;;;;;7.38;4.72;;;;;;;18.85;68.88;98884.53;5116751;28;20407;-66
2022/07/10 01:22:37;;;;;;;8.30;5.05;;;;;;;18.80;69.21;98888.56;5097109;28;20051;-67
2022/07/10 01:25:05;;;;;;;11.38;4.60;;;;;;;18.77;68.78;98895.00;5100603;28;20047;-67
2022/07/10 01:27:32;;;;;;;9.52;4.78;;;;;;;18.80;68.81;98899.84;5110246;28;20062;-67
2022/07/10 01:30:00;;;;;;;8.82;5.25;;;;;;;18.86;68.71;98895.41;5095476;28;20052;-67
2022/07/10 01:32:36;;;;;;;8.48;4.57;;;;;;;18.86;68.43;98889.78;5078242;28;20044;-67
2022/07/10 01:35:04;;;;;;;9.73;4.60;;;;;;;18.87;68.41;98882.13;5096353;28;20138;-68
2022/07/10 01:37:31;;;;;;;7.10;4.25;;;;;;;18.86;68.35;98875.69;5095886;28;20054;-67
2022/07/10 01:39:58;;;;;;;8.18;4.85;;;;;;;18.89;68.42;98868.44;5095581;28;20549;-68
2022/07/10 01:42:25;;;;;;;7.97;5.25;;;;;;;18.84;68.80;98866.84;5095801;28;20055;-68
2022/07/10 01:44:51;;;;;;;7.47;4.90;;;;;;;18.86;68.95;98858.78;5095986;28;20143;-68
2022/07/10 01:47:18;;;;;;;11.20;5.53;;;;;;;18.82;69.36;98868.44;5095846;28;20131;-67
2022/07/10 01:49:45;;;;;;;8.75;5.13;;;;;;;18.76;69.60;98876.50;5095401;28;20080;-68
2022/07/10 01:52:12;;;;;;;8.10;5.28;;;;;;;18.76;69.58;98870.88;5095792;28;20499;-70
2022/07/10 01:54:39;;;;;;;9.82;5.00;;;;;;;18.72;69.93;98853.16;5095115;28;20048;-71
2022/07/10 01:57:08;;;;;;;8.55;5.07;;;;;;;18.72;69.81;98860.81;5095745;28;20052;-71
2022/07/10 01:59:35;;;;;;;7.67;5.10;;;;;;;18.63;70.04;98854.75;5095549;28;20048;-71
2022/07/10 02:02:02;;;;;;;7.63;4.35;;;;;;;18.62;70.23;98859.59;5110568;28;20035;-69
2022/07/10 02:04:41;;;;;;;9.35;5.32;;;;;;;18.61;70.21;98857.16;5115827;28;20058;-70
2022/07/10 02:07:12;;;;;;;6.95;5.15;;;;;;;18.59;70.43;98868.06;5114446;28;20079;-70
2022/07/10 02:09:40;;;;;;;7.88;5.20;;;;;;;18.57;70.50;98862.00;5094910;28;20047;-71
2022/07/10 02:12:08;;;;;;;5.43;4.05;;;;;;;18.58;69.94;98864.44;5095285;28;20048;-70
2022/07/10 02:14:36;;;;;;;5.40;3.80;;;;;;;18.65;69.55;98869.28;5095226;28;20043;-70
2022/07/10 02:17:07;;;;;;;8.73;4.32;;;;;;;18.72;68.04;98870.06;5095288;28;20052;-70
2022/07/10 02:19:35;;;;;;;6.55;3.97;;;;;;;18.73;67.41;98868.84;5094896;28;20067;-71
2022/07/10 02:22:02;;;;;;;6.30;3.85;;;;;;;18.76;67.02;98870.88;5095669;28;20044;-71
2022/07/10 02:24:28;;;;;;;8.25;3.50;;;;;;;18.81;66.44;98884.56;5094595;28;20063;-71
2022/07/10 02:26:56;;;;;;;5.90;3.92;;;;;;;18.82;66.06;98890.97;5095367;28;20048;-71
2022/07/10 02:29:23;;;;;;;5.57;3.83;;;;;;;18.87;65.88;98887.78;5094789;28;20423;-71
2022/07/10 02:31:50;;;;;;;5.75;3.40;;;;;;;18.94;64.79;98887.75;5094789;28;20093;-71
2022/07/10 02:34:17;;;;;;;7.63;3.20;;;;;;;19.00;64.37;98886.94;5094789;28;20101;-70
2022/07/10 02:36:43;;;;;;;5.50;3.50;;;;;;;19.08;64.09;98884.94;5095163;28;20051;-71
2022/07/10 02:39:11;;;;;;;8.07;4.03;;;;;;;19.19;63.78;98886.50;5094808;28;20503;-71
2022/07/10 02:41:37;;;;;;;9.05;4.15;;;;;;;19.36;63.60;98894.16;5113071;28;20429;-70
2022/07/10 02:44:04;;;;;;;6.53;3.72;;;;;;;19.42;63.36;98886.91;5115009;28;20518;-71
2022/07/10 02:46:31;;;;;;;5.40;3.75;;;;;;;19.45;63.31;98894.53;5109802;28;20071;-71
2022/07/10 02:48:58;;;;;;;7.38;3.83;;;;;;;19.52;62.81;98894.53;5094217;28;20048;-71
2022/07/10 02:51:25;;;;;;;6.40;3.90;;;;;;;19.62;62.86;98884.41;5106118;28;20047;-71
2022/07/10 02:53:52;;;;;;;5.65;3.88;;;;;;;19.68;62.78;98877.13;5096225;28;20067;-71
2022/07/10 02:56:19;;;;;;;8.15;4.05;;;;;;;19.70;62.65;98889.66;5115701;27;20052;-71
2022/07/10 02:58:46;;;;;;;6.90;4.25;;;;;;;19.70;62.89;98891.66;5135143;27;20061;-70
2022/07/10 03:01:13;;;;;;;9.95;4.20;;;;;;;19.67;63.14;98875.53;5098076;27;20071;-70
2022/07/10 03:03:40;;;;;;;6.10;4.00;;;;;;;19.69;63.29;98882.38;5094564;28;20052;-70
2022/07/10 03:06:07;;;;;;;6.75;4.18;;;;;;;19.69;63.33;98876.72;5094052;28;20055;-67
2022/07/10 03:08:35;;;;;;;7.93;4.07;;;;;;;19.73;63.26;98886.00;5107580;28;20498;-70
2022/07/10 03:11:02;;;;;;;6.25;3.97;;;;;;;19.75;63.07;98882.78;5115153;28;20428;-70
2022/07/10 03:13:29;;;;;;;5.40;3.70;;;;;;;19.83;62.71;98889.97;5114666;28;20048;-70
2022/07/10 03:15:56;;;;;;;8.45;3.78;;;;;;;19.89;62.61;98891.97;5114468;28;20065;-70
2022/07/10 03:18:23;;;;;;;7.47;3.88;;;;;;;19.96;62.55;98885.50;5114415;28;20130;-69
2022/07/10 03:20:50;;;;;;;7.78;3.45;;;;;;;20.02;61.94;98894.34;5114282;28;20051;-68
2022/07/10 03:23:17;;;;;;;7.20;3.47;;;;;;;20.01;61.81;98884.25;5114315;28;20517;-69
2022/07/10 03:25:46;;;;;;;9.45;3.88;;;;;;;20.02;61.92;98892.31;5114335;28;20055;-69
2022/07/10 03:28:13;;;;;;;6.33;3.80;;;;;;;20.10;61.72;98898.75;5114469;28;20058;-70
2022/07/10 03:30:39;;;;;;;10.75;3.78;;;;;;;20.11;61.56;98895.50;5114333;28;20047;-69
2022/07/10 03:33:06;;;;;;;5.60;3.50;;;;;;;20.07;61.69;98894.69;5113804;28;20040;-69
2022/07/10 03:35:33;;;;;;;4.88;3.40;;;;;;;20.01;61.75;98895.56;5110359;28;20499;-70
2022/07/10 03:38:00;;;;;;;7.57;4.20;;;;;;;19.94;61.86;98888.72;5092896;28;20052;-70
2022/07/10 03:40:27;;;;;;;7.65;4.18;;;;;;;19.92;62.14;98895.97;5102957;28;20056;-71
2022/07/10 03:42:54;;;;;;;6.90;4.25;;;;;;;19.98;62.08;98896.38;5113991;28;20478;-70
2022/07/10 03:45:21;;;;;;;6.18;3.90;;;;;;;20.02;62.28;98892.31;5113667;28;20058;-71
2022/07/10 03:47:48;;;;;;;5.30;3.90;;;;;;;20.01;61.87;98884.25;5132102;27;20051;-71
2022/07/10 03:50:15;;;;;;;8.52;4.20;;;;;;;20.04;61.95;98883.44;5102689;27;20384;-71
2022/07/10 03:52:44;;;;;;;9.57;4.60;;;;;;;20.04;62.10;98874.97;5093693;28;20472;-70
2022/07/10 03:55:11;;;;;;;9.65;4.13;;;;;;;20.05;62.14;98873.75;5092913;28;20048;-71
2022/07/10 03:57:53;;;;;;;8.80;5.00;;;;;;;20.05;62.11;98862.44;5093318;28;20059;-71
2022/07/10 04:00:25;;;;;;;8.48;4.63;;;;;;;20.04;62.17;98853.16;5092980;28;20054;-71
2022/07/10 04:02:57;;;;;;;10.32;5.50;;;;;;;20.08;62.05;98844.69;5093124;28;20139;-71
2022/07/10 04:05:25;;;;;;;8.88;4.85;;;;;;;20.05;62.37;98839.88;5093009;28;20047;-70
2022/07/10 04:07:53;;;;;;;9.93;5.05;;;;;;;20.06;62.58;98821.69;5100642;28;20093;-71
2022/07/10 04:10:20;;;;;;;9.77;5.20;;;;;;;20.12;62.53;98825.69;5113736;28;20051;-71
2022/07/10 04:12:48;;;;;;;8.45;4.60;;;;;;;20.15;62.20;98834.19;5095502;28;20097;-71
2022/07/10 04:15:15;;;;;;;7.35;4.90;;;;;;;20.18;61.89;98832.53;5113303;28;20059;-71
2022/07/10 04:17:42;;;;;;;9.75;5.28;;;;;;;20.17;61.71;98817.63;5113309;28;20048;-71
2022/07/10 04:20:10;;;;;;;11.23;5.13;;;;;;;20.27;61.43;98818.75;5113288;28;20134;-70
2022/07/10 04:22:37;;;;;;;13.50;6.25;;;;;;;20.34;61.18;98825.16;5113226;28;20039;-71
2022/07/10 04:25:05;;;;;;;11.05;5.30;;;;;;;20.46;60.92;98835.19;5107864;28;20048;-70
2022/07/10 04:27:32;;;;;;;8.73;5.53;;;;;;;20.55;60.55;98841.97;5092923;28;20048;-70
2022/07/10 04:29:59;;;;;;;13.88;5.40;;;;;;;20.46;60.57;98840.81;5099667;28;20047;-71
2022/07/10 04:32:27;;;;;;;11.13;5.45;;;;;;;20.46;60.39;98844.44;5113192;28;20131;-70
2022/07/10 04:34:55;;;;;;;12.18;5.15;;;;;;;20.61;60.28;98829.00;5112846;28;20058;-69
2022/07/10 04:37:22;;;;;;;7.95;4.75;;;;;;;20.75;59.78;98822.41;5133708;28;20418;-70
2022/07/10 04:39:49;;;;;;;11.63;5.40;;;;;;;20.92;59.68;98832.75;5100891;28;20052;-70
2022/07/10 04:42:23;;;;;;;8.05;5.38;;;;;;;20.98;59.40;98842.41;5092471;28;20083;-69
2022/07/10 04:44:50;;;;;;;8.00;4.95;;;;;;;21.00;59.27;98837.97;5092684;28;20066;-71
2022/07/10 04:47:17;;;;;;;14.43;5.75;;;;;;;21.06;59.19;98826.97;5092672;28;20411;-71
2022/07/10 04:49:44;;;;;;;12.43;6.32;;;;;;;21.07;59.16;98839.91;5096212;28;20056;-69
2022/07/10 04:52:11;;;;;;;8.20;5.70;;;;;;;21.15;59.02;98830.13;5096781;28;20553;-69
2022/07/10 04:54:38;;;;;;;10.27;5.90;;;;;;;21.26;58.74;98825.94;5096176;28;20056;-70
2022/07/10 04:57:05;;;;;;;11.75;6.53;;;;;;;21.31;58.37;98833.97;5096791;28;20055;-69
2022/07/10 04:59:32;;;;;;;11.38;6.30;;;;;;;21.37;58.01;98828.66;5096678;28;20147;-70
2022/07/10 05:01:59;;;;;;;14.70;6.45;;;;;;;21.53;58.10;98823.22;5096653;28;20039;-73
2022/07/10 05:04:26;;;;;;;9.15;5.95;;;;;;;21.62;57.86;98827.13;5096985;28;20048;-72
2022/07/10 05:06:52;;;;;;;9.15;5.80;;;;;;;21.63;57.99;98817.44;5078614;28;20086;-68
2022/07/10 05:09:19;;;;;;;13.10;6.53;;;;;;;21.80;57.87;98818.44;5116225;28;20073;-73
2022/07/10 05:11:47;;;;;;;9.48;6.13;;;;;;;21.90;57.49;98814.66;5116881;28;20048;-69
2022/07/10 05:14:14;;;;;;;9.57;5.85;;;;;;;22.00;57.18;98812.91;5111729;28;20059;-67
2022/07/10 05:16:43;;;;;;;11.48;6.22;;;;;;;22.11;56.86;98808.69;5096713;28;20056;-71
2022/07/10 05:19:10;;;;;;;10.18;6.60;;;;;;;22.18;56.83;98805.78;5096354;28;20048;-72
2022/07/10 05:21:37;;;;;;;13.48;6.40;;;;;;;22.22;56.64;98809.34;5096465;28;20052;-69
2022/07/10 05:24:04;;;;;;;9.02;6.30;;;;;;;22.27;56.68;98811.72;5096167;28;20067;-71
2022/07/10 05:26:31;;;;;;;9.50;6.53;;;;;;;22.37;56.53;98805.06;5096692;28;20456;-71
2022/07/10 05:28:57;;;;;;;9.00;6.43;;;;;;;22.58;56.30;98815.28;5095865;28;20419;-70
2022/07/10 05:31:27;;;;;;;10.60;6.63;;;;;;;22.72;55.89;98815.03;5096170;28;20052;-69
2022/07/10 05:33:54;;;;;;;;;;;;;;;22.66;56.11;98808.25;5096503;28;20491;-74
2022/07/10 05:36:21;;;;;;;10.07;6.45;;;;;;;22.67;56.00;98813.50;5096045;28;19928;-70
2022/07/10 05:38:47;;;;;;;11.75;7.85;;;;;;;22.75;55.58;98812.16;5095939;28;20503;-72
2022/07/10 05:41:14;;;;;;;9.07;6.32;;;;;;;23.09;55.25;98812.75;5115947;28;20142;-73
2022/07/10 05:43:41;;;;;;;10.77;6.70;;;;;;;23.34;54.40;98806.63;5116424;28;20145;-73
2022/07/10 05:46:08;;;;;;;8.32;5.80;;;;;;;23.65;53.95;98816.53;5116360;28;20048;-72
2022/07/10 05:48:38;;;;;;;11.45;6.45;;;;;;;23.86;53.33;98815.28;5115922;28;20052;-70
2022/07/10 05:51:05;;;;;;;14.15;6.53;;;;;;;23.90;53.12;98810.31;5097622;28;20066;-68
2022/07/10 05:53:52;;;;;;;14.45;6.43;;;;;;;23.98;52.69;98809.75;5115810;28;20117;-72
2022/07/10 05:56:19;;;;;;;13.07;6.47;;;;;;;24.29;52.85;98810.25;5115663;28;20087;-70
2022/07/10 05:58:49;;;;;;;13.38;6.82;;;;;;;24.60;51.96;98803.00;5077141;28;20062;-72
2022/07/10 06:01:16;;;;;;;11.68;6.22;;;;;;;24.81;52.01;98819.56;5094807;28;20185;-70
2022/07/10 06:03:43;;;;;;;10.00;6.95;;;;;;;24.89;50.92;98810.41;5096056;28;20061;-73
2022/07/10 06:06:13;;;;;;;12.05;7.20;;;;;;;24.92;50.33;98812.34;5095216;28;20048;-70
2022/07/10 06:08:41;;;;;;;20.30;7.00;;;;;;;25.16;49.85;98817.84;5109544;28;20146;-70
2022/07/10 06:11:08;;;;;;;11.07;6.45;;;;;;;25.85;48.62;98820.75;5115601;28;20078;-70
2022/07/10 06:13:35;;;;;;;15.57;7.43;;;;;;;27.01;46.52;98816.25;5115606;28;20145;-71
2022/07/10 06:16:03;;;;;;;8.60;6.68;;;;;;;28.74;42.21;98817.81;5115620;28;20039;-68
2022/07/10 06:18:31;;;;;;;10.27;6.40;;;;;;;30.83;37.82;98816.47;5102380;28;20048;-69
2022/07/10 06:20:58;;;;;;;11.05;6.40;;;;;;;30.43;38.75;98821.72;5095418;28;20048;-70
2022/07/10 06:23:29;;;;;;;25.35;6.72;;;;;;;28.84;41.18;98822.34;5094780;28;20040;-72
2022/07/10 06:25:56;;;;;;;9.80;7.25;;;;;;;27.73;42.35;98819.75;5095392;28;20147;-70
2022/07/10 06:28:23;;;;;;;16.50;7.15;;;;;;;27.43;43.08;98815.56;5095071;28;20525;-73
2022/07/10 06:30:50;;;;;;;11.57;6.30;;;;;;;27.44;43.29;98807.81;5114973;28;20494;-71
2022/07/10 06:33:25;;;;;;;10.23;7.10;;;;;;;27.06;43.52;98812.81;5115326;28;20101;-69
2022/07/10 06:35:52;;;;;;;19.85;7.43;;;;;;;26.59;44.60;98809.91;5115345;28;20067;-70
2022/07/10 06:38:19;;;;;;;12.55;6.60;;;;;;;26.39;45.00;98818.69;5115240;28;20387;-69
2022/07/10 06:40:47;;;;;;;8.50;6.60;;;;;;;26.37;45.19;98821.19;5115216;28;20047;-70
2022/07/10 06:43:14;;;;;;;12.63;6.32;;;;;;;26.32;45.41;98821.75;5114953;28;20046;-67
2022/07/10 06:45:41;;;;;;;16.30;7.45;;;;;;;26.26;45.66;98817.88;5115625;28;20102;-69
2022/07/10 06:48:08;;;;;;;11.65;6.40;;;;;;;26.16;46.08;98819.00;5135677;27;20141;-69
2022/07/10 06:50:35;;;;;;;11.68;6.38;;;;;;;26.28;45.70;98825.97;5135212;27;20414;-70
2022/07/10 06:53:03;;;;;;;10.52;6.75;;;;;;;26.31;45.62;98837.28;5121189;27;20044;-68
2022/07/10 06:55:30;;;;;;;12.52;7.32;;;;;;;26.08;46.17;98833.94;5094492;28;20553;-71
2022/07/10 06:57:58;;;;;;;13.23;6.85;;;;;;;25.66;46.31;98824.56;5108805;28;20047;-70
2022/07/10 07:00:25;;;;;;;9.35;6.13;;;;;;;25.30;46.81;98835.31;5114469;28;20051;-75
2022/07/10 07:02:52;;;;;;;11.82;7.32;;;;;;;25.54;45.91;98831.00;5114555;28;20525;-74
2022/07/10 07:05:19;;;;;;;8.85;6.30;;;;;;;26.01;45.22;98828.44;5115209;28;20056;-71
2022/07/10 07:07:46;;;;;;;12.45;6.35;;;;;;;28.15;41.14;98826.75;5084545;28;20179;-71
2022/07/10 07:10:13;;;;;;;11.57;6.00;;;;;;;30.62;36.44;98844.16;5094150;28;20503;-74
2022/07/10 07:12:40;;;;;;;16.27;7.45;;;;;;;32.40;32.52;98841.75;5093053;28;20071;-74
2022/07/10 07:15:07;;;;;;;13.65;6.78;;;;;;;33.26;31.36;98825.59;5094007;28;20507;-71
2022/07/10 07:18:07;;;;;;;8.73;6.13;;;;;;;35.85;28.31;98832.97;5094724;28;20048;-71
2022/07/10 07:23:22;;;;;;;16.40;6.28;;;;;;;38.47;25.00;98830.69;5093652;28;20106;-71
2022/07/10 07:25:49;;;;;;;8.48;5.90;;;;;;;37.14;26.49;98826.75;5093874;28;20063;-70
2022/07/10 07:28:19;;;;;;;13.43;6.78;;;;;;;36.76;26.26;98825.50;5093717;28;20072;-69
2022/07/10 07:30:47;;;;;;;10.95;6.75;;;;;;;36.80;26.32;98825.25;5113104;28;20126;-68
2022/07/10 07:33:14;;;;;;;12.13;6.45;;;;;;;35.68;27.58;98834.19;5113902;28;20047;-67
2022/07/10 07:35:41;;;;;;;18.67;6.72;;;;;;;36.19;27.12;98830.94;5114221;28;20051;-68
2022/07/10 07:38:08;;;;;;;13.50;6.40;;;;;;;37.18;25.95;98824.41;5113871;28;20054;-68
2022/07/10 07:40:37;;;;;;;10.18;6.45;;;;;;;37.03;26.17;98827.56;5114725;28;20057;-69
2022/07/10 07:43:04;;;;;;;8.32;5.20;;;;;;;37.18;25.45;98833.09;5101422;28;20036;-70
2022/07/10 07:45:31;;;;;;;8.57;5.50;;;;;;;35.58;26.53;98845.19;5093481;28;20147;-70
2022/07/10 07:47:59;;;;;;;9.95;5.53;;;;;;;33.63;29.24;98840.28;5093534;28;20044;-68
2022/07/10 07:50:29;;;;;;;9.20;6.15;;;;;;;31.86;31.85;98835.75;5093262;28;20079;-70
2022/07/10 07:52:56;;;;;;;9.65;5.75;;;;;;;30.57;34.15;98844.00;5093780;28;20051;-70
2022/07/10 07:55:23;;;;;;;9.23;6.40;;;;;;;29.43;36.29;98841.88;5092910;28;20056;-68
2022/07/10 07:57:53;;;;;;;20.35;6.45;;;;;;;28.49;37.93;98823.78;5093449;28;20450;-67
2022/07/10 08:00:22;;;;;;;9.75;6.45;;;;;;;27.90;39.16;98829.78;5092950;28;20447;-69
2022/07/10 08:02:50;;;;;;;9.80;6.35;;;;;;;27.60;39.95;98824.75;5093415;28;20040;-70
2022/07/10 08:05:18;;;;;;;9.15;6.45;;;;;;;27.46;40.59;98830.97;5092931;28;20079;-70
2022/07/10 08:07:48;;;;;;;8.77;6.18;;;;;;;27.34;40.94;98824.06;5099896;28;20434;-69
2022/07/10 08:10:18;;;;;;;11.63;6.10;;;;;;;27.47;40.93;98821.94;5113872;28;20073;-69
2022/07/10 08:12:46;;;;;;;11.88;5.97;;;;;;;27.79;40.29;98823.63;5113721;28;20053;-69
2022/07/10 08:15:16;;;;;;;9.38;6.55;;;;;;;28.16;39.84;98814.84;5113133;28;20070;-68
2022/07/10 08:17:46;;;;;;;11.80;5.85;;;;;;;28.43;39.24;98811.31;5113500;28;20043;-67
2022/07/10 08:20:14;;;;;;;9.30;5.95;;;;;;;28.66;38.73;98816.53;5115741;27;20055;-70
2022/07/10 08:22:42;;;;;;;12.73;5.88;;;;;;;28.99;38.29;98823.31;5133400;27;20061;-70
2022/07/10 08:25:10;;;;;;;9.60;5.80;;;;;;;29.26;37.84;98819.72;5133503;27;20050;-70
2022/07/10 08:27:37;;;;;;;8.25;5.35;;;;;;;29.35;37.60;98816.88;5133454;27;20055;-67
2022/07/10 08:30:06;;;;;;;11.10;5.38;;;;;;;29.62;37.18;98814.00;5106416;27;20407;-68
2022/07/10 08:32:33;;;;;;;6.90;5.18;;;;;;;29.82;37.10;98812.28;5092889;28;20059;-70
2022/07/10 08:35:00;;;;;;;10.85;5.28;;;;;;;29.66;37.19;98814.69;5092762;28;20055;-67
2022/07/10 08:37:29;;;;;;;11.50;4.82;;;;;;;29.22;37.39;98808.41;5093004;28;20102;-67
2022/07/10 08:39:56;;;;;;;9.55;5.25;;;;;;;28.84;38.38;98813.75;5092784;28;20048;-67
2022/07/10 08:42:24;;;;;;;19.55;12.48;;;;;;;28.54;38.66;98816.66;5093296;28;20048;-70
2022/07/10 08:44:53;;;;;;;9.43;5.50;;;;;;;28.33;38.93;98816.19;5092635;28;20048;-69
2022/07/10 08:47:25;;;;;;;7.38;5.15;;;;;;;28.48;38.43;98821.41;5092582;28;20052;-67
2022/07/10 08:49:53;;;;;;;8.20;5.00;;;;;;;28.84;37.48;98808.00;5092750;28;20062;-68
2022/07/10 08:52:29;;;;;;;8.80;4.57;;;;;;;32.06;32.57;98807.09;5092987;28;20052;-67
2022/07/10 08:54:56;;;;;;;8.13;4.70;;;;;;;33.61;30.10;98810.31;5092210;28;20056;-70
2022/07/10 08:57:24;;;;;;;5.72;4.13;;;;;;;33.97;28.83;98801.06;5099371;28;20047;-70
2022/07/10 08:59:51;;;;;;;16.50;8.73;;;;;;;32.96;30.15;98815.47;5113414;28;20055;-69
2022/07/10 09:02:18;;;;;;;7.90;5.18;;;;;;;32.60;29.88;98815.94;5094700;28;20586;-68
2022/07/10 09:04:47;;;;;;;13.13;5.30;;;;;;;32.83;29.20;98803.44;5112761;28;20097;-67
2022/07/10 09:07:17;;;;;;;9.00;4.47;;;;;;;32.60;29.43;98801.53;5112941;28;20047;-67
2022/07/10 09:09:57;;;;;;;6.60;4.00;;;;;;;31.95;30.40;98809.75;5112713;28;20058;-70
2022/07/10 09:12:24;;;;;;;10.93;4.60;;;;;;;30.98;31.88;98800.09;5112665;28;20501;-67
2022/07/10 09:14:52;;;;;;;8.40;4.32;;;;;;;30.62;32.74;98797.41;5094786;28;20054;-67
2022/07/10 09:17:19;;;;;;;8.43;4.13;;;;;;;31.65;31.47;98803.16;5112687;28;20405;-68
2022/07/10 09:19:46;;;;;;;10.93;4.70;;;;;;;32.79;29.92;98802.88;5112707;28;20066;-67
2022/07/10 09:22:15;;;;;;;5.85;4.10;;;;;;;34.22;28.25;98788.72;5096671;28;20052;-67
2022/07/10 09:24:44;;;;;;;6.35;4.10;;;;;;;37.14;24.58;98797.75;5092339;28;20036;-70
2022/07/10 09:27:15;;;;;;;10.80;4.18;;;;;;;39.37;22.58;98789.41;5108234;28;20556;-68
2022/07/10 09:29:54;;;;;;;6.68;4.05;;;;;;;39.00;22.08;98779.78;5101948;28;20051;-70
2022/07/10 09:32:21;;;;;;;9.95;4.85;;;;;;;38.78;22.97;98795.31;5092395;28;20098;-71
2022/07/10 09:36:04;;;;;;;6.38;4.03;;;;;;;37.59;22.97;98793.44;5092539;28;20048;-70
2022/07/10 09:37:41;;;;;;;9.70;5.25;;;;;;;37.40;23.28;98775.03;5095896;28;20052;-68
2022/07/10 09:40:09;;;;;;;9.30;5.25;;;;;;;39.75;20.81;98784.44;5095685;28;20079;-71
2022/07/10 09:42:42;;;;;;;6.95;3.00;;;;;;;37.70;21.73;98784.69;5095867;28;20079;-71
2022/07/10 09:45:12;;;;;;;9.48;3.47;;;;;;;35.20;24.66;98778.44;5095780;28;20085;-74
2022/07/10 09:47:41;;;;;;;4.45;2.90;;;;;;;33.55;27.08;98775.66;5095994;28;20036;-73
2022/07/10 09:50:22;;;;;;;11.57;3.42;;;;;;;32.37;28.42;98778.59;5095778;28;20078;-73
2022/07/10 09:52:54;;;;;;;6.53;3.53;;;;;;;31.49;29.92;98764.13;5095619;28;20047;-70
2022/07/10 09:55:24;;;;;;;5.75;3.83;;;;;;;30.79;31.09;98758.41;5094681;28;20048;-70
2022/07/10 09:58:14;;;;;;;6.13;2.60;;;;;;;30.33;32.01;98754.13;5103322;28;20151;-70
2022/07/10 10:00:42;;;;;;;5.30;3.30;;;;;;;29.84;32.90;98752.34;5115498;28;20053;-75
2022/07/10 10:03:11;;;;;;;8.77;3.47;;;;;;;29.43;33.67;98763.69;5115538;28;20058;-73
2022/07/10 10:05:48;;;;;;;13.30;3.30;;;;;;;29.25;33.26;98744.41;5115850;28;20043;-72
2022/07/10 10:08:29;;;;;;;7.18;3.20;;;;;;;29.16;33.51;98757.97;5115837;28;20418;-71
2022/07/10 10:10:58;;;;;;;8.85;3.88;;;;;;;29.05;34.19;98758.44;5104387;28;20056;-74
2022/07/10 10:13:33;;;;;;;17.55;8.60;;;;;;;28.83;34.69;98749.13;5095260;28;20051;-74
2022/07/10 10:16:02;;;;;;;8.95;3.30;;;;;;;28.74;35.12;98754.84;5087876;28;20502;-74
2022/07/10 10:18:29;;;;;;;6.47;3.80;;;;;;;28.68;35.27;98756.72;5115574;28;20051;-71
2022/07/10 10:20:56;;;;;;;8.90;3.45;;;;;;;28.57;35.43;98756.41;5115835;28;20538;-71
2022/07/10 10:23:25;;;;;;;9.00;3.17;;;;;;;28.44;35.55;98738.50;5115318;28;20048;-74
2022/07/10 10:25:56;;;;;;;5.43;3.23;;;;;;;28.38;35.98;98749.78;5101530;28;20051;-70
2022/07/10 10:28:25;;;;;;;6.60;3.30;;;;;;;28.30;36.28;98739.13;5095274;28;20282;-71
2022/07/10 10:30:58;;;;;;;7.22;3.33;;;;;;;28.29;36.64;98735.44;5114904;28;20048;-73
2022/07/10 10:33:45;;;;;;;8.20;2.97;;;;;;;28.41;36.25;98733.72;5115599;28;20097;-72
2022/07/10 10:36:41;;;;;;;5.10;2.70;;;;;;;28.45;35.29;98745.84;5096977;28;20051;-75
2022/07/10 10:39:13;;;;;;;10.77;2.95;;;;;;;28.40;34.60;98737.88;5115243;28;20058;-72
2022/07/10 10:41:42;;;;;;;4.38;2.55;;;;;;;28.37;34.23;98735.94;5096640;28;20112;-73
2022/07/10 10:44:31;;;;;;;19.77;3.92;;;;;;;28.39;34.37;98744.88;5114959;28;20139;-74
2022/07/10 10:47:05;;;;;;;;;;;;;;;28.23;34.56;98743.06;5114963;28;20048;-73
2022/07/10 10:50:09;;;;;;;16.88;3.45;;;;;;;28.34;34.50;98743.44;5115089;28;19972;-75
2022/07/10 10:52:36;;;;;;;5.75;3.05;;;;;;;28.42;34.74;98736.13;5012680;28;20120;-70
2022/07/10 10:55:05;;;;;;;6.50;3.90;;;;;;;28.49;34.94;98737.94;5011919;28;20062;-70
2022/07/10 10:57:32;;;;;;;23.90;11.20;;;;;;;28.52;35.05;98739.84;5012730;28;20583;-70
2022/07/10 11:00:00;;;;;;;9.77;3.42;;;;;;;28.54;35.34;98737.31;5011995;28;20057;-71
2022/07/10 11:02:34;;;;;;;4.63;3.10;;;;;;;28.46;35.44;98741.75;5012059;28;20050;-71
2022/07/10 11:05:20;;;;;;;6.93;3.22;;;;;;;28.43;35.48;98745.50;5011908;28;20422;-71
2022/07/10 11:08:00;;;;;;;6.68;2.90;;;;;;;28.61;35.43;98742.72;5012049;28;20058;-72
2022/07/10 11:10:27;;;;;;;13.68;3.38;;;;;;;28.67;34.95;98755.16;5011854;28;20518;-70
2022/07/10 11:13:11;;;;;;;5.25;3.22;;;;;;;28.79;34.50;98751.34;5011967;28;20100;-70
2022/07/10 11:15:45;;;;;;;8.23;3.13;;;;;;;29.03;33.58;98760.13;5011714;28;20050;-71
2022/07/10 11:18:16;;;;;;;5.78;3.15;;;;;;;29.17;33.06;98756.69;5011699;28;20049;-70
2022/07/10 11:20:53;;;;;;;10.57;2.80;;;;;;;29.17;32.86;98751.75;5012148;28;20065;-68
2022/07/10 11:23:31;;;;;;;12.05;2.70;;;;;;;29.27;33.38;98750.47;5011570;28;20072;-66
2022/07/10 11:26:10;;;;;;;6.10;3.10;;;;;;;29.39;32.98;98738.06;5033761;28;20404;-67
2022/07/10 11:28:50;;;;;;;4.25;2.72;;;;;;;29.41;33.46;98749.84;5099251;28;20089;-70
2022/07/10 11:31:18;;;;;;;8.05;2.70;;;;;;;29.50;33.05;98746.97;5099076;28;20044;-68
2022/07/10 11:33:51;;;;;;;6.88;2.78;;;;;;;29.32;33.89;98749.84;5102082;28;20028;-68
2022/07/10 11:36:21;;;;;;;6.70;2.83;;;;;;;29.11;33.81;98745.06;5079719;28;20052;-74
2022/07/10 11:38:59;;;;;;;4.22;2.58;;;;;;;28.97;34.38;98751.38;5101163;28;20052;-70
2022/07/10 11:41:26;;;;;;;6.57;2.60;;;;;;;28.90;34.63;98745.16;5101546;28;20533;-69
2022/07/10 11:43:58;;;;;;;4.85;2.65;;;;;;;28.92;34.60;98754.88;5101733;28;20047;-70